sensor_id;sensor_type;location;lat;lon;timestamp;pressure;altitude;pressure_sealevel;temperature;humidity
28510;BME280;15723;55.684;37.928;2022-12-07T00:01:13;101436.00;;;-7.90;68.97
28510;BME280;15723;55.684;37.928;2022-12-07T00:03:41;101434.47;;;-7.83;67.15
28510;BME280;15723;55.684;37.928;2022-12-07T00:06:11;101437.38;;;-7.76;68.59
28510;BME280;15723;55.684;37.928;2022-12-07T00:08:38;101433.25;;;-7.93;66.21
28510;BME280;15723;55.684;37.928;2022-12-07T00:11:06;101432.56;;;-7.88;67.40
28510;BME280;15723;55.684;37.928;2022-12-07T00:13:34;101425.47;;;-8.15;68.99
28510;BME280;15723;55.684;37.928;2022-12-07T00:16:02;101420.59;;;-8.29;68.10
28510;BME280;15723;55.684;37.928;2022-12-07T00:18:29;101426.91;;;-8.00;67.23
28510;BME280;15723;55.684;37.928;2022-12-07T00:21:15;101428.25;;;-7.85;67.18
28510;BME280;15723;55.684;37.928;2022-12-07T00:23:43;101437.59;;;-7.70;66.90
28510;BME280;15723;55.684;37.928;2022-12-07T00:26:15;101430.69;;;-7.92;66.47
28510;BME280;15723;55.684;37.928;2022-12-07T00:28:45;101430.06;;;-8.10;67.96
28510;BME280;15723;55.684;37.928;2022-12-07T00:31:12;101428.41;;;-7.81;66.17
28510;BME280;15723;55.684;37.928;2022-12-07T00:33:39;101420.03;;;-7.95;66.45
28510;BME280;15723;55.684;37.928;2022-12-07T00:36:10;101423.66;;;-7.91;68.80
28510;BME280;15723;55.684;37.928;2022-12-07T00:38:38;101423.75;;;-8.15;68.06
28510;BME280;15723;55.684;37.928;2022-12-07T00:41:15;101419.94;;;-7.98;65.60
28510;BME280;15723;55.684;37.928;2022-12-07T00:43:43;101425.41;;;-7.92;65.61
28510;BME280;15723;55.684;37.928;2022-12-07T00:46:10;101424.16;;;-8.03;68.09
28510;BME280;15723;55.684;37.928;2022-12-07T00:48:37;101434.13;;;-8.18;68.97
28510;BME280;15723;55.684;37.928;2022-12-07T00:51:04;101431.69;;;-8.39;70.50
28510;BME280;15723;55.684;37.928;2022-12-07T00:53:30;101425.78;;;-8.06;68.09
28510;BME280;15723;55.684;37.928;2022-12-07T00:55:56;101421.53;;;-8.03;69.33
28510;BME280;15723;55.684;37.928;2022-12-07T00:58:23;101420.97;;;-7.93;68.16
28510;BME280;15723;55.684;37.928;2022-12-07T01:00:49;101420.25;;;-8.14;68.70
28510;BME280;15723;55.684;37.928;2022-12-07T01:03:16;101423.06;;;-8.09;68.34
28510;BME280;15723;55.684;37.928;2022-12-07T01:05:50;101434.75;;;-8.01;69.33
28510;BME280;15723;55.684;37.928;2022-12-07T01:08:17;101415.00;;;-8.14;66.05
28510;BME280;15723;55.684;37.928;2022-12-07T01:10:43;101428.78;;;-8.46;69.13
28510;BME280;15723;55.684;37.928;2022-12-07T01:13:09;101431.09;;;-8.30;67.47
28510;BME280;15723;55.684;37.928;2022-12-07T01:15:39;101425.44;;;-8.17;68.38
28510;BME280;15723;55.684;37.928;2022-12-07T01:18:06;101424.94;;;-8.05;68.13
28510;BME280;15723;55.684;37.928;2022-12-07T01:20:32;101424.84;;;-8.34;67.81
28510;BME280;15723;55.684;37.928;2022-12-07T01:22:58;101428.44;;;-8.06;68.89
28510;BME280;15723;55.684;37.928;2022-12-07T01:25:24;101429.41;;;-8.28;67.13
28510;BME280;15723;55.684;37.928;2022-12-07T01:27:50;101425.19;;;-8.48;68.32
28510;BME280;15723;55.684;37.928;2022-12-07T01:30:16;101425.69;;;-8.35;68.12
28510;BME280;15723;55.684;37.928;2022-12-07T01:32:42;101426.53;;;-8.36;67.14
28510;BME280;15723;55.684;37.928;2022-12-07T01:35:08;101428.22;;;-8.62;65.28
28510;BME280;15723;55.684;37.928;2022-12-07T01:37:38;101420.16;;;-8.66;64.45
28510;BME280;15723;55.684;37.928;2022-12-07T01:40:07;101417.56;;;-8.65;64.46
28510;BME280;15723;55.684;37.928;2022-12-07T01:42:34;101417.69;;;-8.62;64.11
28510;BME280;15723;55.684;37.928;2022-12-07T01:45:36;101427.25;;;-8.88;65.40
28510;BME280;15723;55.684;37.928;2022-12-07T01:48:03;101426.22;;;-8.45;68.97
28510;BME280;15723;55.684;37.928;2022-12-07T01:50:30;101413.53;;;-8.55;66.73
28510;BME280;15723;55.684;37.928;2022-12-07T01:52:58;101403.34;;;-8.46;66.87
28510;BME280;15723;55.684;37.928;2022-12-07T01:55:26;101418.56;;;-8.61;68.81
28510;BME280;15723;55.684;37.928;2022-12-07T01:57:54;101415.16;;;-8.59;67.54
28510;BME280;15723;55.684;37.928;2022-12-07T02:00:20;101408.56;;;-8.71;68.26
28510;BME280;15723;55.684;37.928;2022-12-07T02:02:55;101416.97;;;-9.04;67.75
28510;BME280;15723;55.684;37.928;2022-12-07T02:05:23;101411.41;;;-8.65;68.26
28510;BME280;15723;55.684;37.928;2022-12-07T02:07:51;101415.97;;;-9.07;66.80
28510;BME280;15723;55.684;37.928;2022-12-07T02:10:21;101412.00;;;-8.96;66.86
28510;BME280;15723;55.684;37.928;2022-12-07T02:12:55;101411.59;;;-8.85;69.86
28510;BME280;15723;55.684;37.928;2022-12-07T02:15:29;101406.81;;;-8.71;68.76
28510;BME280;15723;55.684;37.928;2022-12-07T02:18:14;101409.66;;;-8.41;68.18
28510;BME280;15723;55.684;37.928;2022-12-07T02:31:46;101404.34;;;-8.90;70.65
28510;BME280;15723;55.684;37.928;2022-12-07T02:36:59;101398.81;;;-8.74;68.27
28510;BME280;15723;55.684;37.928;2022-12-07T02:39:53;101403.25;;;-8.49;66.23
28510;BME280;15723;55.684;37.928;2022-12-07T02:42:40;101399.75;;;-8.48;65.24
28510;BME280;15723;55.684;37.928;2022-12-07T02:45:10;101403.25;;;-8.49;64.94
28510;BME280;15723;55.684;37.928;2022-12-07T02:47:38;101397.19;;;-8.46;64.04
28510;BME280;15723;55.684;37.928;2022-12-07T02:50:05;101403.06;;;-8.54;64.77
28510;BME280;15723;55.684;37.928;2022-12-07T02:52:32;101404.47;;;-8.63;65.87
28510;BME280;15723;55.684;37.928;2022-12-07T02:54:58;101399.69;;;-8.73;65.06
28510;BME280;15723;55.684;37.928;2022-12-07T02:57:50;101400.53;;;-8.74;65.54
28510;BME280;15723;55.684;37.928;2022-12-07T03:00:21;101402.44;;;-8.70;65.75
28510;BME280;15723;55.684;37.928;2022-12-07T03:08:21;101399.09;;;-8.90;66.85
28510;BME280;15723;55.684;37.928;2022-12-07T03:16:34;101385.16;;;-9.10;68.11
28510;BME280;15723;55.684;37.928;2022-12-07T03:19:08;101392.22;;;-8.87;66.38
28510;BME280;15723;55.684;37.928;2022-12-07T03:22:00;101389.97;;;-9.22;71.34
28510;BME280;15723;55.684;37.928;2022-12-07T03:24:33;101388.34;;;-9.41;70.16
28510;BME280;15723;55.684;37.928;2022-12-07T03:27:07;101383.16;;;-9.17;70.33
28510;BME280;15723;55.684;37.928;2022-12-07T03:29:38;101391.69;;;-9.23;70.10
28510;BME280;15723;55.684;37.928;2022-12-07T03:32:14;101387.69;;;-9.35;70.49
28510;BME280;15723;55.684;37.928;2022-12-07T03:34:54;101395.56;;;-9.35;72.00
28510;BME280;15723;55.684;37.928;2022-12-07T03:37:41;101390.84;;;-9.44;69.71
28510;BME280;15723;55.684;37.928;2022-12-07T03:40:22;101389.34;;;-9.15;69.97
28510;BME280;15723;55.684;37.928;2022-12-07T03:42:51;101393.63;;;-9.19;72.26
28510;BME280;15723;55.684;37.928;2022-12-07T03:45:19;101392.56;;;-9.00;70.79
28510;BME280;15723;55.684;37.928;2022-12-07T03:47:56;101386.91;;;-9.10;68.29
28510;BME280;15723;55.684;37.928;2022-12-07T03:52:59;101385.22;;;-9.08;68.67
28510;BME280;15723;55.684;37.928;2022-12-07T03:55:34;101380.63;;;-8.92;67.45
28510;BME280;15723;55.684;37.928;2022-12-07T03:58:06;101387.78;;;-9.10;67.30
28510;BME280;15723;55.684;37.928;2022-12-07T04:00:33;101391.50;;;-9.05;67.91
28510;BME280;15723;55.684;37.928;2022-12-07T04:03:00;101395.53;;;-9.15;67.76
28510;BME280;15723;55.684;37.928;2022-12-07T04:05:26;101385.28;;;-9.52;69.03
28510;BME280;15723;55.684;37.928;2022-12-07T04:07:53;101386.13;;;-9.08;68.69
28510;BME280;15723;55.684;37.928;2022-12-07T04:10:19;101391.19;;;-9.35;70.12
28510;BME280;15723;55.684;37.928;2022-12-07T04:12:45;101389.03;;;-9.24;69.28
28510;BME280;15723;55.684;37.928;2022-12-07T04:15:12;101388.00;;;-9.28;66.91
28510;BME280;15723;55.684;37.928;2022-12-07T04:17:38;101388.28;;;-9.20;68.60
28510;BME280;15723;55.684;37.928;2022-12-07T04:20:05;101380.56;;;-9.38;69.02
28510;BME280;15723;55.684;37.928;2022-12-07T04:22:31;101375.03;;;-9.66;68.12
28510;BME280;15723;55.684;37.928;2022-12-07T04:24:58;101375.72;;;-9.50;68.36
28510;BME280;15723;55.684;37.928;2022-12-07T04:27:24;101379.25;;;-9.49;69.00
28510;BME280;15723;55.684;37.928;2022-12-07T04:29:50;101382.78;;;-9.49;70.08
28510;BME280;15723;55.684;37.928;2022-12-07T04:32:16;101382.44;;;-9.58;69.23
28510;BME280;15723;55.684;37.928;2022-12-07T04:34:42;101388.47;;;-9.38;69.84
28510;BME280;15723;55.684;37.928;2022-12-07T04:37:08;101386.38;;;-9.24;68.08
28510;BME280;15723;55.684;37.928;2022-12-07T04:39:34;101380.53;;;-9.62;70.00
28510;BME280;15723;55.684;37.928;2022-12-07T04:42:00;101380.75;;;-9.56;69.67
28510;BME280;15723;55.684;37.928;2022-12-07T04:44:28;101374.25;;;-9.43;68.33
28510;BME280;15723;55.684;37.928;2022-12-07T04:46:54;101376.47;;;-9.54;68.98
28510;BME280;15723;55.684;37.928;2022-12-07T04:49:21;101386.16;;;-9.73;70.28
28510;BME280;15723;55.684;37.928;2022-12-07T04:51:47;101376.94;;;-9.64;68.56
28510;BME280;15723;55.684;37.928;2022-12-07T04:54:14;101377.47;;;-8.81;69.84
28510;BME280;15723;55.684;37.928;2022-12-07T04:56:41;101368.13;;;-8.23;68.87
28510;BME280;15723;55.684;37.928;2022-12-07T04:59:08;101384.06;;;-8.69;66.44
28510;BME280;15723;55.684;37.928;2022-12-07T05:01:35;101371.63;;;-8.49;66.91
28510;BME280;15723;55.684;37.928;2022-12-07T05:04:01;101384.63;;;-8.77;67.28
28510;BME280;15723;55.684;37.928;2022-12-07T05:06:28;101369.81;;;-7.99;67.77
28510;BME280;15723;55.684;37.928;2022-12-07T05:08:54;101376.25;;;-8.91;66.90
28510;BME280;15723;55.684;37.928;2022-12-07T05:11:20;101374.78;;;-8.83;68.53
28510;BME280;15723;55.684;37.928;2022-12-07T05:14:17;101381.38;;;-8.46;66.95
28510;BME280;15723;55.684;37.928;2022-12-07T05:16:48;101388.19;;;-9.23;67.22
28510;BME280;15723;55.684;37.928;2022-12-07T05:19:16;101378.44;;;-9.26;68.76
28510;BME280;15723;55.684;37.928;2022-12-07T05:21:42;101374.91;;;-9.26;67.81
28510;BME280;15723;55.684;37.928;2022-12-07T05:24:10;101377.59;;;-8.78;66.82
28510;BME280;15723;55.684;37.928;2022-12-07T05:26:37;101365.56;;;-7.94;66.71
28510;BME280;15723;55.684;37.928;2022-12-07T05:29:03;101377.13;;;-8.91;65.41
28510;BME280;15723;55.684;37.928;2022-12-07T05:31:30;101370.53;;;-8.79;68.85
28510;BME280;15723;55.684;37.928;2022-12-07T05:33:56;101376.00;;;-8.49;67.79
28510;BME280;15723;55.684;37.928;2022-12-07T05:36:22;101378.47;;;-8.78;67.19
28510;BME280;15723;55.684;37.928;2022-12-07T05:38:48;101375.66;;;-8.59;64.72
28510;BME280;15723;55.684;37.928;2022-12-07T05:41:17;101378.28;;;-8.59;65.24
28510;BME280;15723;55.684;37.928;2022-12-07T05:44:03;101377.81;;;-8.72;66.63
28510;BME280;15723;55.684;37.928;2022-12-07T05:46:29;101382.84;;;-8.55;66.43
28510;BME280;15723;55.684;37.928;2022-12-07T05:48:55;101379.97;;;-8.61;65.42
28510;BME280;15723;55.684;37.928;2022-12-07T05:51:22;101375.31;;;-8.44;64.73
28510;BME280;15723;55.684;37.928;2022-12-07T05:53:48;101380.75;;;-8.63;64.40
28510;BME280;15723;55.684;37.928;2022-12-07T05:56:15;101374.69;;;-8.11;63.90
28510;BME280;15723;55.684;37.928;2022-12-07T05:58:41;101374.94;;;-8.04;64.18
28510;BME280;15723;55.684;37.928;2022-12-07T06:01:26;101376.56;;;-7.53;62.87
28510;BME280;15723;55.684;37.928;2022-12-07T06:03:53;101369.22;;;-7.07;62.16
28510;BME280;15723;55.684;37.928;2022-12-07T06:06:19;101364.00;;;-6.75;61.92
28510;BME280;15723;55.684;37.928;2022-12-07T06:08:46;101369.34;;;-6.72;61.60
28510;BME280;15723;55.684;37.928;2022-12-07T06:11:12;101374.00;;;-6.95;61.88
28510;BME280;15723;55.684;37.928;2022-12-07T06:13:56;101365.69;;;-7.07;62.67
28510;BME280;15723;55.684;37.928;2022-12-07T06:16:22;101365.88;;;-6.40;60.94
28510;BME280;15723;55.684;37.928;2022-12-07T06:18:48;101359.56;;;-6.45;61.76
28510;BME280;15723;55.684;37.928;2022-12-07T06:21:14;101363.94;;;-7.07;63.87
28510;BME280;15723;55.684;37.928;2022-12-07T06:23:41;101366.38;;;-6.21;62.44
28510;BME280;15723;55.684;37.928;2022-12-07T06:26:07;101360.06;;;-5.93;60.79
28510;BME280;15723;55.684;37.928;2022-12-07T06:28:33;101368.47;;;-6.73;62.90
28510;BME280;15723;55.684;37.928;2022-12-07T06:31:01;101347.56;;;-5.61;61.84
28510;BME280;15723;55.684;37.928;2022-12-07T06:33:28;101341.19;;;-4.48;60.21
28510;BME280;15723;55.684;37.928;2022-12-07T06:35:54;101343.22;;;-4.34;59.69
28510;BME280;15723;55.684;37.928;2022-12-07T06:38:21;101352.59;;;-4.95;60.95
28510;BME280;15723;55.684;37.928;2022-12-07T06:40:47;101347.53;;;-4.41;56.96
28510;BME280;15723;55.684;37.928;2022-12-07T06:43:14;101355.28;;;-4.03;56.97
28510;BME280;15723;55.684;37.928;2022-12-07T06:45:42;101348.53;;;-4.80;56.18
28510;BME280;15723;55.684;37.928;2022-12-07T06:48:09;101354.91;;;-4.70;57.42
28510;BME280;15723;55.684;37.928;2022-12-07T06:50:35;101356.66;;;-5.13;56.80
28510;BME280;15723;55.684;37.928;2022-12-07T06:53:01;101353.59;;;-5.29;55.61
28510;BME280;15723;55.684;37.928;2022-12-07T06:55:27;101347.19;;;-4.10;55.04
28510;BME280;15723;55.684;37.928;2022-12-07T06:57:53;101350.25;;;-3.87;53.02
28510;BME280;15723;55.684;37.928;2022-12-07T07:00:20;101358.63;;;-3.64;55.83
28510;BME280;15723;55.684;37.928;2022-12-07T07:02:46;101342.66;;;-3.06;54.41
28510;BME280;15723;55.684;37.928;2022-12-07T07:05:12;101343.56;;;-2.30;53.47
28510;BME280;15723;55.684;37.928;2022-12-07T07:07:38;101335.22;;;-3.32;54.52
28510;BME280;15723;55.684;37.928;2022-12-07T07:10:05;101352.06;;;-4.79;56.19
28510;BME280;15723;55.684;37.928;2022-12-07T07:12:31;101348.03;;;-4.12;55.54
28510;BME280;15723;55.684;37.928;2022-12-07T07:14:57;101348.91;;;-3.63;55.68
28510;BME280;15723;55.684;37.928;2022-12-07T07:17:23;101350.09;;;-3.43;55.64
28510;BME280;15723;55.684;37.928;2022-12-07T07:19:49;101349.47;;;-3.25;55.17
28510;BME280;15723;55.684;37.928;2022-12-07T07:22:15;101355.25;;;-2.93;54.03
28510;BME280;15723;55.684;37.928;2022-12-07T07:24:41;101354.03;;;-3.17;53.52
28510;BME280;15723;55.684;37.928;2022-12-07T07:27:08;101366.78;;;-4.04;53.17
28510;BME280;15723;55.684;37.928;2022-12-07T07:29:34;101357.25;;;-3.37;54.06
28510;BME280;15723;55.684;37.928;2022-12-07T07:32:00;101350.19;;;-3.91;54.67
28510;BME280;15723;55.684;37.928;2022-12-07T07:34:27;101341.53;;;-5.18;56.70
28510;BME280;15723;55.684;37.928;2022-12-07T07:36:53;101347.09;;;-3.64;55.96
28510;BME280;15723;55.684;37.928;2022-12-07T07:39:19;101335.41;;;-3.18;53.20
28510;BME280;15723;55.684;37.928;2022-12-07T07:41:46;101343.53;;;-3.06;53.32
28510;BME280;15723;55.684;37.928;2022-12-07T07:44:18;101340.94;;;-3.63;54.76
28510;BME280;15723;55.684;37.928;2022-12-07T07:46:44;101319.22;;;-1.80;52.84
28510;BME280;15723;55.684;37.928;2022-12-07T07:49:10;101324.06;;;-1.24;49.84
28510;BME280;15723;55.684;37.928;2022-12-07T07:51:37;101325.00;;;-1.16;47.91
28510;BME280;15723;55.684;37.928;2022-12-07T07:54:03;101321.63;;;-0.76;46.89
28510;BME280;15723;55.684;37.928;2022-12-07T07:56:29;101311.75;;;-1.06;46.95
28510;BME280;15723;55.684;37.928;2022-12-07T07:58:55;101318.19;;;-0.41;46.74
28510;BME280;15723;55.684;37.928;2022-12-07T08:01:22;101314.69;;;-0.16;46.21
28510;BME280;15723;55.684;37.928;2022-12-07T08:03:48;101325.09;;;-0.98;47.26
28510;BME280;15723;55.684;37.928;2022-12-07T08:06:14;101314.47;;;-0.92;48.45
28510;BME280;15723;55.684;37.928;2022-12-07T08:08:40;101320.06;;;0.53;45.46
28510;BME280;15723;55.684;37.928;2022-12-07T08:11:09;101315.59;;;-0.21;48.42
28510;BME280;15723;55.684;37.928;2022-12-07T08:13:36;101306.63;;;-0.51;47.60
28510;BME280;15723;55.684;37.928;2022-12-07T08:16:07;101326.34;;;-2.64;49.91
28510;BME280;15723;55.684;37.928;2022-12-07T08:18:43;101327.72;;;-3.59;52.95
28510;BME280;15723;55.684;37.928;2022-12-07T08:21:12;101319.47;;;-3.18;53.41
28510;BME280;15723;55.684;37.928;2022-12-07T08:23:38;101319.13;;;-3.98;54.61
28510;BME280;15723;55.684;37.928;2022-12-07T08:26:06;101321.06;;;-3.32;55.28
28510;BME280;15723;55.684;37.928;2022-12-07T08:28:33;101324.66;;;-3.83;55.51
28510;BME280;15723;55.684;37.928;2022-12-07T08:31:01;101323.34;;;-3.57;54.71
28510;BME280;15723;55.684;37.928;2022-12-07T08:33:27;101316.94;;;-3.07;55.63
28510;BME280;15723;55.684;37.928;2022-12-07T08:35:53;101296.13;;;-3.99;55.08
28510;BME280;15723;55.684;37.928;2022-12-07T08:38:20;101309.09;;;-4.15;55.69
28510;BME280;15723;55.684;37.928;2022-12-07T08:40:56;101312.44;;;-3.73;57.14
28510;BME280;15723;55.684;37.928;2022-12-07T08:43:22;101306.41;;;-4.18;57.33
28510;BME280;15723;55.684;37.928;2022-12-07T08:48:51;101307.72;;;-3.93;55.66
28510;BME280;15723;55.684;37.928;2022-12-07T08:51:20;101295.22;;;-4.48;57.53
28510;BME280;15723;55.684;37.928;2022-12-07T08:53:48;101293.22;;;-4.63;57.46
28510;BME280;15723;55.684;37.928;2022-12-07T08:56:15;101299.38;;;-4.64;59.22
28510;BME280;15723;55.684;37.928;2022-12-07T08:58:41;101294.63;;;-3.81;57.28
28510;BME280;15723;55.684;37.928;2022-12-07T09:01:11;101284.84;;;-3.26;56.86
28510;BME280;15723;55.684;37.928;2022-12-07T09:03:37;101292.69;;;-4.44;56.08
28510;BME280;15723;55.684;37.928;2022-12-07T09:06:03;101284.72;;;-4.90;56.35
28510;BME280;15723;55.684;37.928;2022-12-07T09:08:42;101283.19;;;-3.77;57.29
28510;BME280;15723;55.684;37.928;2022-12-07T09:11:11;101284.53;;;-3.47;56.80
28510;BME280;15723;55.684;37.928;2022-12-07T09:13:37;101278.34;;;-4.53;55.99
28510;BME280;15723;55.684;37.928;2022-12-07T09:16:03;101277.81;;;-3.83;57.53
28510;BME280;15723;55.684;37.928;2022-12-07T09:18:30;101272.78;;;-4.20;55.35
28510;BME280;15723;55.684;37.928;2022-12-07T09:20:56;101262.06;;;-3.05;56.38
28510;BME280;15723;55.684;37.928;2022-12-07T09:23:23;101265.47;;;-3.19;54.85
28510;BME280;15723;55.684;37.928;2022-12-07T09:25:49;101263.69;;;-3.18;54.73
28510;BME280;15723;55.684;37.928;2022-12-07T09:28:15;101264.84;;;-3.63;53.90
28510;BME280;15723;55.684;37.928;2022-12-07T09:30:48;101265.28;;;-3.34;55.98
28510;BME280;15723;55.684;37.928;2022-12-07T09:33:15;101250.50;;;-4.31;54.84
28510;BME280;15723;55.684;37.928;2022-12-07T09:35:48;101257.53;;;-4.82;53.43
28510;BME280;15723;55.684;37.928;2022-12-07T09:38:15;101250.63;;;-3.68;57.00
28510;BME280;15723;55.684;37.928;2022-12-07T09:40:42;101243.25;;;-4.42;56.27
28510;BME280;15723;55.684;37.928;2022-12-07T09:43:20;101249.59;;;-4.32;54.07
28510;BME280;15723;55.684;37.928;2022-12-07T09:45:53;101242.00;;;-4.09;55.85
28510;BME280;15723;55.684;37.928;2022-12-07T09:48:32;101239.63;;;-3.94;57.89
28510;BME280;15723;55.684;37.928;2022-12-07T09:51:03;101232.88;;;-3.02;56.39
28510;BME280;15723;55.684;37.928;2022-12-07T09:53:39;101223.41;;;-2.80;54.55
28510;BME280;15723;55.684;37.928;2022-12-07T09:56:05;101236.81;;;-4.54;55.21
28510;BME280;15723;55.684;37.928;2022-12-07T09:58:33;101237.63;;;-4.08;57.43
28510;BME280;15723;55.684;37.928;2022-12-07T10:01:19;101231.69;;;-3.30;56.14
28510;BME280;15723;55.684;37.928;2022-12-07T10:03:54;101236.19;;;-3.85;54.61
28510;BME280;15723;55.684;37.928;2022-12-07T10:06:21;101232.16;;;-3.60;54.62
28510;BME280;15723;55.684;37.928;2022-12-07T10:08:47;101216.22;;;-2.91;53.84
28510;BME280;15723;55.684;37.928;2022-12-07T10:11:13;101222.25;;;-3.02;55.33
28510;BME280;15723;55.684;37.928;2022-12-07T10:13:47;101226.59;;;-3.77;53.45
28510;BME280;15723;55.684;37.928;2022-12-07T10:18:50;101217.81;;;-3.05;54.04
28510;BME280;15723;55.684;37.928;2022-12-07T10:21:22;101214.72;;;-3.38;51.21
28510;BME280;15723;55.684;37.928;2022-12-07T10:31:41;101215.53;;;-3.44;54.21
28510;BME280;15723;55.684;37.928;2022-12-07T10:34:35;101212.50;;;-3.03;55.40
28510;BME280;15723;55.684;37.928;2022-12-07T10:39:48;101208.22;;;-4.74;53.55
28510;BME280;15723;55.684;37.928;2022-12-07T10:42:26;101199.72;;;-3.35;55.66
28510;BME280;15723;55.684;37.928;2022-12-07T10:45:21;101214.66;;;-3.43;53.79
28510;BME280;15723;55.684;37.928;2022-12-07T10:47:52;101208.09;;;-3.01;54.50
28510;BME280;15723;55.684;37.928;2022-12-07T11:07:02;101184.03;;;-4.44;54.61
28510;BME280;15723;55.684;37.928;2022-12-07T11:12:56;101187.16;;;-4.12;56.11
28510;BME280;15723;55.684;37.928;2022-12-07T11:18:15;101181.19;;;-4.53;57.91
28510;BME280;15723;55.684;37.928;2022-12-07T11:24:16;101156.44;;;-3.31;56.06
28510;BME280;15723;55.684;37.928;2022-12-07T11:37:41;101157.91;;;-4.72;54.54
28510;BME280;15723;55.684;37.928;2022-12-07T11:40:17;101155.84;;;-4.88;56.25
28510;BME280;15723;55.684;37.928;2022-12-07T11:43:50;101162.69;;;-3.92;58.66
28510;BME280;15723;55.684;37.928;2022-12-07T11:48:37;101151.75;;;-4.71;56.82
28510;BME280;15723;55.684;37.928;2022-12-07T11:51:06;101155.88;;;-3.72;56.40
28510;BME280;15723;55.684;37.928;2022-12-07T11:58:55;101148.13;;;-4.20;53.18
28510;BME280;15723;55.684;37.928;2022-12-07T12:09:15;101144.75;;;-4.10;56.99
28510;BME280;15723;55.684;37.928;2022-12-07T12:21:01;101131.03;;;-4.42;58.85
28510;BME280;15723;55.684;37.928;2022-12-07T12:23:41;101132.03;;;-4.87;59.22
28510;BME280;15723;55.684;37.928;2022-12-07T12:26:20;101132.91;;;-4.86;59.38
28510;BME280;15723;55.684;37.928;2022-12-07T12:28:55;101125.31;;;-4.09;58.88
28510;BME280;15723;55.684;37.928;2022-12-07T12:33:54;101139.22;;;-5.28;59.98
28510;BME280;15723;55.684;37.928;2022-12-07T12:50:17;101134.88;;;-6.49;63.09
28510;BME280;15723;55.684;37.928;2022-12-07T12:52:49;101126.41;;;-5.95;63.71
28510;BME280;15723;55.684;37.928;2022-12-07T12:55:18;101130.34;;;-6.55;62.71
28510;BME280;15723;55.684;37.928;2022-12-07T13:03:54;101127.31;;;-5.51;64.76
28510;BME280;15723;55.684;37.928;2022-12-07T13:08:52;101127.88;;;-6.47;63.14
28510;BME280;15723;55.684;37.928;2022-12-07T13:11:41;101129.38;;;-6.58;64.32
28510;BME280;15723;55.684;37.928;2022-12-07T13:14:38;101125.28;;;-6.46;64.83
28510;BME280;15723;55.684;37.928;2022-12-07T13:20:06;101118.16;;;-6.48;65.14
28510;BME280;15723;55.684;37.928;2022-12-07T13:27:48;101138.09;;;-6.97;65.99
28510;BME280;15723;55.684;37.928;2022-12-07T13:30:20;101141.34;;;-6.73;66.30
28510;BME280;15723;55.684;37.928;2022-12-07T13:32:58;101128.84;;;-6.44;67.09
28510;BME280;15723;55.684;37.928;2022-12-07T13:37:55;101137.94;;;-7.03;65.11
28510;BME280;15723;55.684;37.928;2022-12-07T13:40:22;101128.72;;;-6.84;66.96
28510;BME280;15723;55.684;37.928;2022-12-07T13:43:03;101136.03;;;-6.74;66.61
28510;BME280;15723;55.684;37.928;2022-12-07T13:45:32;101124.88;;;-6.99;66.21
28510;BME280;15723;55.684;37.928;2022-12-07T13:48:24;101133.16;;;-6.83;67.13
28510;BME280;15723;55.684;37.928;2022-12-07T13:50:58;101126.31;;;-7.10;66.14
28510;BME280;15723;55.684;37.928;2022-12-07T13:53:25;101121.44;;;-6.95;68.02
28510;BME280;15723;55.684;37.928;2022-12-07T13:56:00;101122.19;;;-7.00;66.47
28510;BME280;15723;55.684;37.928;2022-12-07T13:58:30;101122.81;;;-7.09;65.33
28510;BME280;15723;55.684;37.928;2022-12-07T14:00:57;101104.53;;;-7.03;67.75
28510;BME280;15723;55.684;37.928;2022-12-07T14:03:27;101141.50;;;-7.34;68.45
28510;BME280;15723;55.684;37.928;2022-12-07T14:06:14;101112.19;;;-7.45;69.25
28510;BME280;15723;55.684;37.928;2022-12-07T14:08:42;101118.53;;;-7.38;68.00
28510;BME280;15723;55.684;37.928;2022-12-07T14:11:14;101120.69;;;-7.55;68.58
28510;BME280;15723;55.684;37.928;2022-12-07T14:13:55;101118.03;;;-7.57;70.28
28510;BME280;15723;55.684;37.928;2022-12-07T14:16:35;101116.75;;;-7.71;70.04
28510;BME280;15723;55.684;37.928;2022-12-07T14:19:04;101129.75;;;-7.77;71.13
28510;BME280;15723;55.684;37.928;2022-12-07T14:21:33;101117.22;;;-7.84;68.85
28510;BME280;15723;55.684;37.928;2022-12-07T14:24:17;101117.31;;;-7.81;70.28
28510;BME280;15723;55.684;37.928;2022-12-07T14:26:48;101118.50;;;-7.71;69.07
28510;BME280;15723;55.684;37.928;2022-12-07T14:31:52;101109.66;;;-7.73;69.32
28510;BME280;15723;55.684;37.928;2022-12-07T14:34:23;101106.69;;;-7.52;71.12
28510;BME280;15723;55.684;37.928;2022-12-07T14:36:49;101107.91;;;-7.73;69.23
28510;BME280;15723;55.684;37.928;2022-12-07T14:39:15;101106.88;;;-7.78;69.39
28510;BME280;15723;55.684;37.928;2022-12-07T14:41:42;101102.47;;;-7.79;68.62
28510;BME280;15723;55.684;37.928;2022-12-07T14:44:19;101107.41;;;-7.90;69.66
28510;BME280;15723;55.684;37.928;2022-12-07T14:46:47;101107.25;;;-7.64;67.73
28510;BME280;15723;55.684;37.928;2022-12-07T14:49:13;101102.09;;;-7.60;69.31
28510;BME280;15723;55.684;37.928;2022-12-07T14:51:40;101096.59;;;-7.69;71.51
28510;BME280;15723;55.684;37.928;2022-12-07T14:54:15;101101.78;;;-7.72;70.18
28510;BME280;15723;55.684;37.928;2022-12-07T14:56:43;101103.81;;;-7.62;71.50
28510;BME280;15723;55.684;37.928;2022-12-07T14:59:10;101105.50;;;-7.64;70.54
28510;BME280;15723;55.684;37.928;2022-12-07T15:01:37;101108.84;;;-7.71;69.26
28510;BME280;15723;55.684;37.928;2022-12-07T15:04:03;101106.13;;;-7.74;70.01
28510;BME280;15723;55.684;37.928;2022-12-07T15:06:29;101096.94;;;-7.87;70.63
28510;BME280;15723;55.684;37.928;2022-12-07T15:08:55;101095.31;;;-7.81;71.04
28510;BME280;15723;55.684;37.928;2022-12-07T15:11:21;101088.56;;;-8.03;70.53
28510;BME280;15723;55.684;37.928;2022-12-07T15:13:47;101099.91;;;-7.76;72.85
28510;BME280;15723;55.684;37.928;2022-12-07T15:16:33;101092.13;;;-7.71;71.41
28510;BME280;15723;55.684;37.928;2022-12-07T15:18:59;101095.66;;;-7.71;70.08